Time;durP1;ratioP1;P1;durP2;ratioP2;P2;SDS_P1;SDS_P2;PMS_P1;PMS_P2;Temp;Humidity;BMP_temperature;BMP_pressure;BME280_temperature;BME280_humidity;BME280_pressure;Samples;Min_cycle;Max_cycle;Signal;HPM_P1;HPM_P2
2024/01/12 00:00:23;;;;;;;15.80;11.03;;;;;;;2.29;55.55;94622.44;5030385;28;20756;-66
2024/01/12 00:02:50;;;;;;;14.97;10.13;;;;;;;1.97;55.60;94579.69;5030509;28;20196;-65
2024/01/12 00:05:16;;;;;;;14.00;10.97;;;;;;;2.20;55.62;94613.69;5030086;28;20195;-65
2024/01/12 00:07:44;;;;;;;14.60;10.70;;;;;;;2.26;55.57;94625.94;5030432;28;20183;-63
2024/01/12 00:10:13;;;;;;;18.90;10.67;;;;;;;2.25;55.59;94629.38;5030426;28;20618;-66
2024/01/12 00:12:40;;;;;;;15.37;11.10;;;;;;;2.25;55.65;94631.91;5030417;28;20226;-64
2024/01/12 00:15:08;;;;;;;18.17;11.07;;;;;;;2.25;55.53;94628.56;5029982;28;20195;-63
2024/01/12 00:17:35;;;;;;;15.97;9.83;;;;;;;1.93;55.50;94575.72;5030519;28;20187;-62
2024/01/12 00:20:04;;;;;;;16.53;10.33;;;;;;;2.22;55.38;94616.94;5028930;28;20212;-65
2024/01/12 00:22:31;;;;;;;13.87;9.80;;;;;;;2.23;55.49;94627.81;5030295;28;20214;-65
2024/01/12 00:24:58;;;;;;;14.67;10.70;;;;;;;2.19;55.25;94626.38;5030315;28;20265;-66
2024/01/12 00:27:26;;;;;;;15.07;10.03;;;;;;;2.22;55.32;94627.03;5030441;28;20194;-64
2024/01/12 00:29:53;;;;;;;12.77;9.53;;;;;;;2.22;55.33;94627.03;5029985;28;20196;-65
2024/01/12 00:32:20;;;;;;;16.77;10.37;;;;;;;2.17;55.40;94628.19;5031504;28;20192;-66
2024/01/12 00:34:47;;;;;;;14.50;9.70;;;;;;;2.23;55.19;94638.72;5044324;28;20188;-63
2024/01/12 00:37:14;;;;;;;14.23;9.30;;;;;;;2.25;55.23;94633.59;5031805;28;20661;-64
2024/01/12 00:39:40;;;;;;;13.77;9.87;;;;;;;2.24;55.04;94630.25;5029881;28;20215;-63
2024/01/12 00:42:07;;;;;;;12.47;8.93;;;;;;;2.27;55.08;94636.84;5029766;28;20194;-65
2024/01/12 00:44:35;;;;;;;14.87;9.07;;;;;;;2.17;55.04;94616.38;5030063;28;20262;-66
2024/01/12 00:47:02;;;;;;;14.13;9.83;;;;;;;2.28;55.04;94625.03;5029588;28;20192;-67
2024/01/12 00:49:29;;;;;;;11.70;8.27;;;;;;;2.30;54.84;94629.09;5029919;28;20195;-65
2024/01/12 00:51:56;;;;;;;14.17;9.07;;;;;;;2.18;54.81;94612.16;5029453;28;20180;-64
2024/01/12 00:54:26;;;;;;;12.43;8.40;;;;;;;2.33;54.66;94633.97;5029918;28;20649;-68
2024/01/12 00:56:53;;;;;;;11.33;8.67;;;;;;;2.35;54.71;94629.63;5029669;28;20260;-68
2024/01/12 00:59:22;;;;;;;12.17;9.07;;;;;;;2.37;54.54;94627.00;5029780;28;20223;-65
2024/01/12 01:01:50;;;;;;;11.43;8.33;;;;;;;2.38;54.49;94634.50;5029956;28;20211;-67
2024/01/12 01:04:17;;;;;;;12.07;8.10;;;;;;;2.40;54.48;94632.69;5032073;28;20184;-65
2024/01/12 01:06:44;;;;;;;11.17;8.17;;;;;;;2.33;54.21;94616.31;5029818;28;20219;-62
2024/01/12 01:09:10;;;;;;;13.00;8.50;;;;;;;2.44;54.22;94628.28;5029928;28;20195;-64
2024/01/12 01:11:37;;;;;;;10.57;7.93;;;;;;;2.46;54.17;94626.47;5029193;28;20195;-62
2024/01/12 01:14:04;;;;;;;11.07;8.07;;;;;;;2.47;53.84;94620.53;5029537;28;20203;-66
2024/01/12 01:16:31;;;;;;;10.53;7.40;;;;;;;2.44;53.86;94610.63;5029477;28;20203;-65
2024/01/12 01:18:59;;;;;;;9.20;7.30;;;;;;;2.50;53.53;94618.66;5028891;28;20191;-65
2024/01/12 01:21:26;;;;;;;9.27;6.80;;;;;;;2.52;53.88;94613.50;5029226;28;20530;-67
2024/01/12 01:23:52;;;;;;;9.63;6.70;;;;;;;2.54;53.46;94610.88;5028897;28;20184;-65
2024/01/12 01:26:19;;;;;;;10.57;7.33;;;;;;;2.41;53.22;94591.41;5029647;28;20192;-64
2024/01/12 01:28:46;;;;;;;8.67;6.87;;;;;;;2.51;53.27;94592.50;5029095;28;20195;-65
2024/01/12 01:31:13;;;;;;;8.27;6.47;;;;;;;2.53;53.25;94589.06;5031491;28;20214;-66
2024/01/12 01:33:39;;;;;;;8.47;6.23;;;;;;;2.54;52.83;94585.63;5026123;28;20192;-63
2024/01/12 01:36:08;;;;;;;7.93;6.27;;;;;;;2.54;52.72;94585.63;5032847;28;20203;-65
2024/01/12 01:38:35;;;;;;;8.87;6.70;;;;;;;2.51;52.80;94558.88;5033064;28;20275;-62
2024/01/12 01:41:01;;;;;;;11.17;6.93;;;;;;;2.57;52.78;94571.13;5033069;28;20230;-65
2024/01/12 01:43:28;;;;;;;10.37;7.37;;;;;;;2.55;52.53;94567.06;5032900;28;20245;-65
2024/01/12 01:45:55;;;;;;;10.87;7.53;;;;;;;2.57;52.54;94573.66;5033044;28;20187;-65
2024/01/12 01:48:22;;;;;;;9.77;6.33;;;;;;;2.33;52.48;94534.75;5032296;28;20187;-64
2024/01/12 01:50:49;;;;;;;8.73;6.97;;;;;;;2.57;52.40;94575.38;5032769;28;20207;-63
2024/01/12 01:53:17;;;;;;;10.10;6.60;;;;;;;2.54;52.47;94573.03;5032812;28;20191;-66
2024/01/12 01:55:45;;;;;;;9.30;6.20;;;;;;;2.55;52.59;94564.53;5032880;28;20184;-63
2024/01/12 01:58:12;;;;;;;9.97;6.83;;;;;;;2.54;52.48;94566.25;5032641;28;20188;-66
2024/01/12 02:00:39;;;;;;;10.60;7.50;;;;;;;2.54;52.68;94563.72;5031825;28;20234;-59
2024/01/12 02:03:07;;;;;;;10.10;7.23;;;;;;;2.40;52.50;94548.63;5032637;28;20591;-61
2024/01/12 02:05:35;;;;;;;11.10;7.20;;;;;;;2.51;52.37;94561.41;5032415;28;20612;-61
2024/01/12 02:08:03;;;;;;;11.67;8.03;;;;;;;2.42;52.63;94544.31;5032745;28;20195;-63
2024/01/12 02:10:31;;;;;;;9.57;6.97;;;;;;;2.47;52.77;94548.16;5032085;28;20206;-61
2024/01/12 02:12:58;;;;;;;10.23;7.07;;;;;;;2.47;52.77;94558.25;5019410;28;20690;-61
2024/01/12 02:15:26;;;;;;;9.60;6.70;;;;;;;2.06;52.68;94481.72;5032038;28;20610;-62
2024/01/12 02:17:53;;;;;;;7.77;6.80;;;;;;;2.41;52.67;94548.50;5032956;28;20246;-64
2024/01/12 02:20:20;;;;;;;10.30;7.47;;;;;;;2.45;52.64;94555.00;5031924;28;20231;-62
2024/01/12 02:22:48;;;;;;;9.93;6.60;;;;;;;2.44;52.70;94560.16;5032228;28;20192;-65
2024/01/12 02:25:16;;;;;;;9.13;7.20;;;;;;;2.42;52.57;94554.41;5032240;28;20188;-65
2024/01/12 02:27:43;;;;;;;11.23;7.73;;;;;;;2.45;52.59;94565.09;5031869;28;20223;-66
2024/01/12 02:30:11;;;;;;;9.83;7.13;;;;;;;2.46;52.36;94553.28;5031970;28;20562;-61
2024/01/12 02:32:37;;;;;;;11.30;6.83;;;;;;;2.40;52.42;94543.56;5032457;28;20180;-63
2024/01/12 02:35:05;;;;;;;8.90;7.20;;;;;;;2.41;52.43;94540.13;5032282;28;20188;-62
2024/01/12 02:37:32;;;;;;;9.03;7.30;;;;;;;2.49;52.12;94558.16;5031883;28;20192;-63
2024/01/12 02:40:00;;;;;;;8.93;6.47;;;;;;;2.11;52.14;94494.84;5031984;28;20234;-65
2024/01/12 02:42:27;;;;;;;9.30;7.37;;;;;;;1.93;52.10;94461.47;5030232;28;20211;-63
2024/01/12 02:44:53;;;;;;;8.63;6.57;;;;;;;2.52;52.16;94547.88;5031909;28;20246;-62
2024/01/12 02:47:20;;;;;;;11.10;6.50;;;;;;;2.53;52.18;94557.06;5031505;28;20206;-62
2024/01/12 02:49:47;;;;;;;10.70;7.07;;;;;;;2.53;52.23;94556.25;5031762;28;20184;-62
2024/01/12 02:52:14;;;;;;;9.13;7.20;;;;;;;2.29;52.00;94518.16;5031923;28;20188;-64
2024/01/12 02:54:40;;;;;;;10.50;6.83;;;;;;;2.46;52.05;94548.25;5032071;28;20196;-62
2024/01/12 02:57:08;;;;;;;9.57;7.63;;;;;;;2.53;52.12;94569.69;5031411;28;20273;-68
2024/01/12 02:59:35;;;;;;;10.10;7.13;;;;;;;2.53;52.09;94569.69;5017642;28;20231;-66
2024/01/12 03:02:02;;;;;;;9.07;6.97;;;;;;;2.23;52.19;94527.72;5031584;28;20192;-68
2024/01/12 03:04:29;;;;;;;9.13;7.27;;;;;;;2.43;52.24;94550.97;5031862;28;20207;-66
2024/01/12 03:06:56;;;;;;;11.53;7.63;;;;;;;2.50;52.17;94578.28;5033579;28;20192;-60
2024/01/12 03:09:23;;;;;;;10.97;8.17;;;;;;;2.50;52.24;94568.19;5047081;28;20188;-66
2024/01/12 03:11:50;;;;;;;14.17;8.03;;;;;;;2.43;52.06;94556.81;5031857;28;20184;-64
2024/01/12 03:14:18;;;;;;;10.07;7.87;;;;;;;2.48;52.27;94564.91;5031198;28;20199;-66
2024/01/12 03:16:45;;;;;;;12.37;8.10;;;;;;;2.38;52.34;94556.28;5031638;28;20191;-63
2024/01/12 03:19:12;;;;;;;12.97;8.50;;;;;;;2.22;52.23;94522.78;5031452;28;20184;-64
2024/01/12 03:21:38;;;;;;;13.70;8.50;;;;;;;2.44;52.16;94548.34;5031535;28;20224;-64
2024/01/12 03:24:05;;;;;;;12.40;8.20;;;;;;;2.43;52.23;94556.81;5030710;28;20191;-66
2024/01/12 03:26:36;;;;;;;13.13;8.70;;;;;;;2.38;52.26;94555.47;5030888;28;20722;-65
2024/01/12 03:29:03;;;;;;;12.20;8.47;;;;;;;2.41;52.45;94560.31;5030630;28;20595;-65
2024/01/12 03:31:31;;;;;;;10.27;8.57;;;;;;;2.41;52.43;94562.84;5030834;28;20198;-66
2024/01/12 03:33:58;;;;;;;12.70;9.00;;;;;;;2.13;52.27;94526.66;5030557;28;20191;-62
2024/01/12 03:36:27;;;;;;;13.57;8.60;;;;;;;2.40;52.46;94561.22;5030807;28;20227;-65
2024/01/12 03:38:54;;;;;;;12.50;7.83;;;;;;;2.40;52.44;94558.72;5030690;28;20195;-65
2024/01/12 03:41:21;;;;;;;13.53;8.67;;;;;;;2.35;52.47;94543.03;5030946;28;20653;-67
2024/01/12 03:43:48;;;;;;;10.47;8.27;;;;;;;2.40;52.35;94551.16;5030123;28;20191;-65
2024/01/12 03:46:14;;;;;;;14.07;9.03;;;;;;;2.31;52.40;94534.03;5030611;28;20591;-66
2024/01/12 03:48:43;;;;;;;12.23;8.53;;;;;;;2.41;52.22;94537.63;5030687;28;20194;-66
2024/01/12 03:51:10;;;;;;;13.67;8.70;;;;;;;2.32;52.37;94531.41;5030427;28;20598;-64
2024/01/12 03:53:36;;;;;;;10.57;8.57;;;;;;;2.41;52.26;94542.66;5030471;28;20199;-66
2024/01/12 03:56:03;;;;;;;12.23;8.07;;;;;;;2.42;52.17;94547.63;5030644;28;20203;-65
2024/01/12 03:58:30;;;;;;;10.23;7.27;;;;;;;2.36;52.16;94537.09;5030265;28;20275;-64
2024/01/12 04:00:57;;;;;;;10.77;7.73;;;;;;;2.45;52.22;94546.63;5029899;28;20266;-67
2024/01/12 04:03:24;;;;;;;12.40;8.23;;;;;;;2.47;52.24;94539.78;5030414;28;20211;-66
2024/01/12 04:05:52;;;;;;;11.67;7.97;;;;;;;2.49;52.04;94537.97;5030055;28;20199;-64
2024/01/12 04:08:19;;;;;;;10.97;8.20;;;;;;;2.52;52.04;94535.25;5030419;28;20195;-67
2024/01/12 04:10:45;;;;;;;12.87;8.20;;;;;;;2.54;52.11;94532.63;5030084;28;20682;-66
2024/01/12 04:13:12;;;;;;;9.77;7.03;;;;;;;2.43;51.95;94526.53;5030013;28;20196;-65
2024/01/12 04:15:39;;;;;;;9.87;7.90;;;;;;;2.59;51.98;94541.56;5029758;28;20693;-65
2024/01/12 04:18:06;;;;;;;11.00;7.30;;;;;;;2.62;51.95;94532.97;5030665;28;20195;-64
2024/01/12 04:20:33;;;;;;;9.50;6.97;;;;;;;2.64;51.83;94529.47;5030283;28;20238;-66
2024/01/12 04:23:01;;;;;;;10.40;7.57;;;;;;;2.61;51.92;94524.59;5029781;28;20688;-66
2024/01/12 04:25:28;;;;;;;10.77;7.90;;;;;;;2.71;51.70;94542.50;5030319;28;20188;-66
2024/01/12 04:27:54;;;;;;;9.33;7.13;;;;;;;2.66;51.58;94526.84;5029579;28;20188;-64
2024/01/12 04:30:21;;;;;;;10.00;7.03;;;;;;;2.75;51.67;94549.00;5029738;28;20253;-67
2024/01/12 04:32:48;;;;;;;11.00;8.03;;;;;;;2.77;51.51;94544.69;5029908;28;20223;-66
2024/01/12 04:35:15;;;;;;;10.37;7.27;;;;;;;2.79;51.57;94542.84;5029794;28;20652;-66
2024/01/12 04:37:43;;;;;;;12.10;7.67;;;;;;;2.84;51.57;94542.56;5029598;28;20590;-66
2024/01/12 04:40:11;;;;;;;8.97;7.20;;;;;;;2.87;51.53;94549.97;5030039;28;20633;-66
2024/01/12 04:42:38;;;;;;;12.17;7.83;;;;;;;2.69;51.51;94509.78;5029651;28;20194;-65
2024/01/12 04:45:06;;;;;;;9.90;7.63;;;;;;;2.93;51.54;94530.19;5029741;28;20207;-66
2024/01/12 04:47:32;;;;;;;9.87;7.37;;;;;;;2.96;51.44;94530.00;5029577;28;20195;-65
2024/01/12 04:49:59;;;;;;;11.73;7.67;;;;;;;2.86;51.39;94521.38;5029389;28;20670;-64
2024/01/12 04:52:26;;;;;;;10.57;8.23;;;;;;;2.99;51.42;94529.81;5029614;28;20195;-65
2024/01/12 04:54:53;;;;;;;11.87;8.40;;;;;;;3.01;51.26;94538.09;5029775;28;20819;-68
2024/01/12 04:57:21;;;;;;;13.80;7.83;;;;;;;3.01;51.26;94540.63;5029888;28;20670;-65
2024/01/12 04:59:48;;;;;;;12.73;8.77;;;;;;;2.96;51.41;94542.63;5029304;28;20234;-67
2024/01/12 05:02:15;;;;;;;11.03;8.20;;;;;;;3.00;51.41;94541.53;5029875;28;20222;-64
2024/01/12 05:04:41;;;;;;;12.37;8.47;;;;;;;2.76;51.19;94513.56;5029075;28;20234;-65
2024/01/12 05:07:08;;;;;;;12.27;7.70;;;;;;;2.96;51.42;94539.28;5033812;28;20190;-66
2024/01/12 05:09:35;;;;;;;12.13;8.20;;;;;;;2.99;51.61;94565.16;5033853;28;20192;-68
2024/01/12 05:12:04;;;;;;;12.37;9.10;;;;;;;2.97;51.52;94561.91;5034022;28;20195;-66
2024/01/12 05:14:32;;;;;;;12.07;7.70;;;;;;;2.93;51.61;94555.44;5032492;28;20196;-64
2024/01/12 05:16:59;;;;;;;11.33;7.97;;;;;;;2.65;51.61;94523.50;5033522;28;20200;-67
2024/01/12 05:19:26;;;;;;;13.90;8.63;;;;;;;2.81;51.79;94552.84;5033504;28;20195;-66
2024/01/12 05:21:53;;;;;;;11.57;8.77;;;;;;;2.90;51.67;94578.38;5033194;28;20686;-63
2024/01/12 05:24:19;;;;;;;13.03;8.63;;;;;;;2.89;51.78;94586.03;5033185;28;20671;-63
2024/01/12 05:26:46;;;;;;;14.40;8.93;;;;;;;2.80;51.84;94572.25;5033906;28;20187;-64
2024/01/12 05:29:14;;;;;;;16.87;9.80;;;;;;;2.70;51.76;94563.63;5033302;28;20219;-63
2024/01/12 05:31:43;;;;;;;14.23;8.93;;;;;;;2.82;51.81;94590.66;5033181;28;20706;-60
2024/01/12 05:34:10;;;;;;;15.07;10.87;;;;;;;2.80;51.83;94596.69;5033147;28;20196;-62
2024/01/12 05:36:37;;;;;;;13.50;9.20;;;;;;;2.76;51.98;94601.94;5032759;28;20202;-62
2024/01/12 05:39:05;;;;;;;15.10;9.77;;;;;;;2.47;51.95;94562.50;5034260;28;20184;-65
2024/01/12 05:41:32;;;;;;;15.00;9.37;;;;;;;2.66;51.98;94603.38;5042283;28;20223;-61
2024/01/12 05:43:58;;;;;;;14.40;9.83;;;;;;;2.48;52.04;94576.72;5043824;28;20180;-65
2024/01/12 05:46:25;;;;;;;15.33;9.80;;;;;;;2.66;52.04;94612.69;5038878;28;20188;-62
2024/01/12 05:48:53;;;;;;;15.90;9.60;;;;;;;2.48;51.99;94591.88;5033187;28;20202;-65
2024/01/12 05:51:21;;;;;;;12.63;9.40;;;;;;;2.64;52.13;94611.97;5032646;28;20258;-64
2024/01/12 05:53:47;;;;;;;15.87;11.10;;;;;;;2.62;52.33;94612.03;5032646;28;20196;-63
2024/01/12 05:56:14;;;;;;;16.23;10.50;;;;;;;2.61;52.24;94612.94;5032609;28;20195;-62
2024/01/12 05:58:41;;;;;;;13.83;9.57;;;;;;;2.59;52.30;94612.25;5032380;28;20199;-63
2024/01/12 06:01:08;;;;;;;18.20;10.40;;;;;;;2.58;52.65;94615.66;5032578;28;20215;-62
2024/01/12 06:03:35;;;;;;;18.00;11.00;;;;;;;2.49;52.27;94596.81;5032571;28;20196;-62
2024/01/12 06:06:04;;;;;;;17.57;10.87;;;;;;;2.40;52.01;94579.72;5032332;28;20184;-62
2024/01/12 06:08:31;;;;;;;17.03;10.57;;;;;;;2.55;52.26;94605.75;5032509;28;20227;-64
2024/01/12 06:10:57;;;;;;;20.37;11.37;;;;;;;2.54;52.41;94599.06;5032150;28;20180;-62
2024/01/12 06:13:24;;;;;;;18.20;10.87;;;;;;;2.54;52.39;94606.63;5031780;28;20191;-62
2024/01/12 06:15:51;;;;;;;14.93;10.90;;;;;;;2.49;52.36;94596.81;5032119;28;20207;-62
2024/01/12 06:18:18;;;;;;;18.77;11.47;;;;;;;2.55;52.48;94599.88;5032132;28;20222;-63
2024/01/12 06:20:44;;;;;;;18.33;11.80;;;;;;;2.46;52.39;94591.97;5032453;28;20601;-63
2024/01/12 06:23:13;;;;;;;15.47;10.63;;;;;;;2.50;52.38;94601.00;5032089;28;20616;-64
2024/01/12 06:25:39;;;;;;;19.50;11.87;;;;;;;2.34;52.38;94574.22;5032052;28;20192;-63
2024/01/12 06:28:07;;;;;;;20.20;11.57;;;;;;;2.63;52.32;94613.66;5031858;28;20190;-64
2024/01/12 06:30:33;;;;;;;11.83;8.57;;;;;;;2.76;66.81;94596.91;5032477;28;20207;-62
2024/01/12 06:33:00;;;;;;;12.60;9.17;;;;;;;3.97;100.00;94608.66;5031675;28;20195;-65
2024/01/12 06:35:27;;;;;;;18.57;10.33;;;;;;;5.26;100.00;94608.34;5032088;28;20194;-63
2024/01/12 06:37:54;;;;;;;18.30;10.67;;;;;;;6.17;99.19;94605.22;5031963;28;20196;-63
2024/01/12 06:40:22;;;;;;;11.80;8.83;;;;;;;6.78;93.58;94621.78;5032407;28;20283;-66
2024/01/12 06:42:49;;;;;;;14.10;8.63;;;;;;;7.18;88.35;94628.09;5031504;28;20757;-63
2024/01/12 06:45:16;;;;;;;15.53;8.70;;;;;;;7.50;82.48;94616.19;5031601;28;20230;-64
2024/01/12 06:47:44;;;;;;;11.53;8.03;;;;;;;7.90;76.86;94625.78;5031972;28;20219;-62
2024/01/12 06:50:11;;;;;;;15.87;9.13;;;;;;;8.26;72.08;94632.16;5032304;28;20180;-64
2024/01/12 06:52:38;;;;;;;11.00;8.50;;;;;;;8.60;69.02;94619.25;5032129;28;20575;-64
2024/01/12 06:55:05;;;;;;;12.43;9.00;;;;;;;9.16;66.76;94628.16;5032645;28;20187;-66
2024/01/12 06:57:34;;;;;;;10.77;8.20;;;;;;;9.63;64.90;94641.13;5031758;28;20642;-67
2024/01/12 07:00:00;;;;;;;13.87;8.77;;;;;;;10.09;62.92;94635.34;5031560;28;20231;-66
2024/01/12 07:02:27;;;;;;;12.47;8.90;;;;;;;10.38;60.68;94608.97;5033416;28;20280;-66
2024/01/12 07:04:54;;;;;;;12.00;8.50;;;;;;;10.93;59.36;94634.63;5034092;28;20748;-66
2024/01/12 07:07:21;;;;;;;9.30;8.13;;;;;;;11.29;57.65;94640.66;5030390;28;20667;-66
2024/01/12 07:09:47;;;;;;;12.20;7.73;;;;;;;11.55;56.10;94640.75;5030607;28;20210;-62
2024/01/12 07:12:14;;;;;;;10.90;7.87;;;;;;;11.80;54.50;94636.69;5030497;28;20192;-68
2024/01/12 07:14:42;;;;;;;12.00;8.33;;;;;;;12.09;53.31;94643.34;5029064;28;20192;-61
2024/01/12 07:17:09;;;;;;;14.03;8.87;;;;;;;12.22;52.56;94625.84;5030351;28;20191;-68
2024/01/12 07:19:36;;;;;;;14.43;8.63;;;;;;;12.70;51.63;94647.63;5030160;28;20196;-66
2024/01/12 07:22:03;;;;;;;10.80;7.77;;;;;;;13.08;51.05;94659.19;5029608;28;20255;-64
2024/01/12 07:24:30;;;;;;;11.70;8.57;;;;;;;13.38;50.25;94657.91;5030463;28;20184;-66
2024/01/12 07:26:57;;;;;;;13.27;9.37;;;;;;;13.71;49.79;94660.59;5029143;28;20301;-66
2024/01/12 07:29:23;;;;;;;14.97;8.80;;;;;;;14.03;49.21;94665.78;5029556;28;20599;-66
2024/01/12 07:31:52;;;;;;;13.27;9.00;;;;;;;14.34;48.50;94678.00;5029741;28;20214;-68
2024/01/12 07:34:18;;;;;;;14.07;9.23;;;;;;;14.55;47.92;94667.25;5030154;28;20187;-63
2024/01/12 07:36:45;;;;;;;13.10;9.27;;;;;;;14.87;47.39;94678.47;5028938;28;20207;-65
2024/01/12 07:39:12;;;;;;;14.73;10.20;;;;;;;15.10;46.31;94674.22;5029358;28;20206;-63
2024/01/12 07:41:39;;;;;;;11.47;9.13;;;;;;;15.35;45.15;94682.66;5027838;28;20691;-67
2024/01/12 07:44:07;;;;;;;15.07;9.93;;;;;;;15.57;44.19;94697.38;5029672;28;20192;-67
2024/01/12 07:46:34;;;;;;;12.33;9.33;;;;;;;15.73;43.54;94682.84;5029755;28;20250;-68
2024/01/12 07:49:02;;;;;;;13.73;9.53;;;;;;;16.02;42.76;94695.09;5029932;28;20579;-63
2024/01/12 07:51:29;;;;;;;15.73;9.83;;;;;;;16.26;42.54;94694.13;5029905;28;20198;-63
2024/01/12 07:53:56;;;;;;;12.13;9.40;;;;;;;16.23;42.10;94672.03;5029214;28;20203;-67
2024/01/12 07:56:22;;;;;;;13.90;9.63;;;;;;;16.30;41.76;94688.44;5029610;28;20184;-65
2024/01/12 07:58:49;;;;;;;14.80;10.83;;;;;;;16.06;41.68;94670.53;5028987;28;20207;-61
2024/01/12 08:01:17;;;;;;;13.40;10.17;;;;;;;16.07;41.32;94705.72;5029714;28;20210;-59
2024/01/12 08:03:45;;;;;;;14.50;10.77;;;;;;;15.90;41.78;94715.31;5029879;28;20710;-63
2024/01/12 08:06:14;;;;;;;17.70;11.10;;;;;;;15.62;41.68;94714.94;5029532;28;20196;-66
2024/01/12 08:08:40;;;;;;;18.43;11.10;;;;;;;15.44;41.69;94720.31;5029717;28;20274;-60
2024/01/12 08:11:07;;;;;;;14.93;11.00;;;;;;;15.23;41.91;94726.00;5029295;28;20198;-65
2024/01/12 08:13:34;;;;;;;16.43;10.73;;;;;;;15.02;41.75;94726.53;5031274;28;20191;-59
2024/01/12 08:16:01;;;;;;;14.07;10.73;;;;;;;15.07;41.42;94713.19;5032154;28;20222;-60
2024/01/12 08:18:28;;;;;;;16.23;10.57;;;;;;;15.19;40.60;94718.78;5030796;28;20195;-63
2024/01/12 08:20:55;;;;;;;15.43;10.63;;;;;;;14.75;40.59;94694.25;5028972;28;20206;-62
2024/01/12 08:23:23;;;;;;;16.67;10.87;;;;;;;14.57;40.55;94734.81;5028494;28;20211;-63
2024/01/12 08:25:50;;;;;;;17.43;11.37;;;;;;;13.99;40.51;94707.41;5029158;28;20195;-61
2024/01/12 08:28:17;;;;;;;16.73;11.50;;;;;;;13.79;40.80;94735.94;5029299;28;20195;-62
2024/01/12 08:30:44;;;;;;;16.80;11.40;;;;;;;13.44;40.93;94739.50;5028951;28;20195;-66
2024/01/12 08:33:11;;;;;;;19.87;12.73;;;;;;;13.21;41.09;94753.78;5029125;28;20192;-63
2024/01/12 08:35:37;;;;;;;18.53;12.23;;;;;;;12.99;41.08;94758.47;5028434;28;20196;-63
2024/01/12 08:38:04;;;;;;;16.67;11.83;;;;;;;12.57;41.34;94730.13;5028940;28;20203;-62
2024/01/12 08:40:33;;;;;;;19.53;12.30;;;;;;;12.41;41.50;94738.50;5027982;28;20195;-61
2024/01/12 08:43:01;;;;;;;18.90;12.00;;;;;;;12.38;41.58;94771.31;5028620;28;20234;-61
2024/01/12 08:45:28;;;;;;;20.10;12.90;;;;;;;12.21;41.47;94760.91;5029016;28;20257;-61
2024/01/12 08:47:55;;;;;;;18.27;11.93;;;;;;;12.58;41.29;94771.97;5028888;28;20196;-63
2024/01/12 08:50:22;;;;;;;23.03;12.63;;;;;;;13.00;40.67;94770.38;5028608;28;20199;-64
2024/01/12 08:52:49;;;;;;;19.70;12.70;;;;;;;12.64;40.50;94718.31;5028852;28;20191;-66
2024/01/12 08:55:16;;;;;;;18.73;12.37;;;;;;;12.80;40.25;94774.88;5029043;28;20552;-63
2024/01/12 08:57:44;;;;;;;20.50;13.17;;;;;;;12.50;40.55;94767.59;5028833;28;20188;-62
2024/01/12 09:00:13;;;;;;;20.60;12.87;;;;;;;12.03;40.90;94731.91;5026900;28;20733;-62
2024/01/12 09:02:39;;;;;;;19.80;12.47;;;;;;;12.00;41.13;94771.47;5011356;28;20588;-63
2024/01/12 09:05:08;;;;;;;22.70;13.03;;;;;;;11.73;41.44;94772.22;5007916;28;20592;-61
2024/01/12 09:07:35;;;;;;;20.53;13.17;;;;;;;11.52;41.64;94780.13;5006731;28;20217;-61
2024/01/12 09:10:02;;;;;;;20.93;13.23;;;;;;;11.41;41.85;94782.09;5027804;28;20184;-62
2024/01/12 09:12:29;;;;;;;21.33;12.77;;;;;;;11.17;41.88;94762.06;5021379;28;20275;-63
2024/01/12 09:14:57;;;;;;;19.27;12.77;;;;;;;11.26;42.17;94797.06;5010478;28;20591;-63
2024/01/12 09:17:24;;;;;;;20.67;13.53;;;;;;;11.11;41.81;94790.81;5023090;28;20199;-64
2024/01/12 09:19:51;;;;;;;19.27;13.00;;;;;;;10.96;42.08;94788.66;5011728;28;20291;-61
2024/01/12 09:22:18;;;;;;;20.80;14.23;;;;;;;10.78;42.20;94788.56;5021853;28;20236;-67
2024/01/12 09:24:44;;;;;;;21.73;13.30;;;;;;;10.45;42.19;94745.53;5023280;28;20200;-65
2024/01/12 09:27:11;;;;;;;23.43;14.23;;;;;;;10.47;42.60;94781.97;5027932;28;20202;-65
2024/01/12 09:29:38;;;;;;;20.87;14.07;;;;;;;10.31;42.67;94772.28;5019153;28;20251;-64
2024/01/12 09:32:06;;;;;;;19.37;13.63;;;;;;;10.12;42.92;94772.25;5019263;28;20655;-65
2024/01/12 09:34:33;;;;;;;20.57;13.63;;;;;;;9.91;43.05;94754.47;5015466;28;20287;-64
2024/01/12 09:37:00;;;;;;;23.70;14.27;;;;;;;9.81;43.22;94759.56;5028037;28;20207;-67
2024/01/12 09:39:27;;;;;;;22.73;13.53;;;;;;;9.80;43.28;94765.59;5012493;28;20196;-65
2024/01/12 09:42:00;;;;;;;18.63;12.80;;;;;;;9.78;43.36;94772.59;5013013;28;20208;-62
2024/01/12 09:44:29;;;;;;;24.80;14.40;;;;;;;9.74;43.33;94763.56;5018416;28;20265;-61
2024/01/12 09:46:57;;;;;;;22.60;13.00;;;;;;;9.48;43.50;94735.16;5009919;28;20205;-63
2024/01/12 09:49:27;;;;;;;18.53;14.50;;;;;;;9.66;43.31;94759.09;5021303;28;20654;-66
2024/01/12 09:51:54;;;;;;;21.57;14.53;;;;;;;9.60;43.25;94759.66;5017302;28;20204;-66
2024/01/12 09:54:21;;;;;;;19.70;12.57;;;;;;;9.50;43.46;94758.81;5029780;28;20187;-62
2024/01/12 09:56:48;;;;;;;24.07;13.33;;;;;;;9.35;43.78;94760.91;5015740;28;20219;-66
2024/01/12 09:59:16;;;;;;;23.70;14.10;;;;;;;9.33;43.67;94762.78;5023748;28;20228;-64
2024/01/12 10:01:43;;;;;;;23.17;14.30;;;;;;;9.28;43.35;94755.50;5026293;28;20211;-62
2024/01/12 10:04:10;;;;;;;20.27;13.33;;;;;;;9.13;43.72;94751.66;5024093;28;20270;-63
2024/01/12 10:06:38;;;;;;;21.07;14.53;;;;;;;9.14;43.87;94770.34;5036413;28;20609;-64
2024/01/12 10:09:06;;;;;;;20.63;14.33;;;;;;;9.02;44.08;94761.94;5025911;28;20556;-66
2024/01/12 10:11:33;;;;;;;26.73;15.00;;;;;;;8.98;44.07;94763.13;5030299;28;20238;-66
2024/01/12 10:14:00;;;;;;;22.23;13.80;;;;;;;8.72;44.13;94727.84;5023283;28;20560;-63
2024/01/12 10:16:29;;;;;;;22.50;14.57;;;;;;;8.89;43.97;94757.03;5033987;28;20195;-64
2024/01/12 10:18:57;;;;;;;19.27;13.90;;;;;;;8.87;44.22;94748.72;5029869;28;20202;-65
2024/01/12 10:21:24;;;;;;;22.90;14.43;;;;;;;8.88;44.20;94760.53;5023709;28;20651;-65
2024/01/12 10:23:52;;;;;;;23.03;13.77;;;;;;;8.90;44.34;94766.34;5024385;28;20679;-66
2024/01/12 10:26:19;;;;;;;24.27;14.67;;;;;;;8.93;44.34;94767.81;5029835;28;20211;-65
2024/01/12 10:28:46;;;;;;;22.53;14.03;;;;;;;8.91;44.01;94762.84;5022486;28;20246;-67
2024/01/12 10:31:13;;;;;;;26.83;14.63;;;;;;;8.95;44.19;94765.94;5023151;28;20218;-66
2024/01/12 10:33:43;;;;;;;22.23;14.90;;;;;;;8.96;44.02;94765.00;5018780;28;20688;-68
2024/01/12 10:36:14;;;;;;;22.63;14.07;;;;;;;8.98;44.07;94765.69;5029286;28;20289;-66
2024/01/12 10:38:45;;;;;;;24.67;15.13;;;;;;;8.96;44.15;94758.16;5023279;28;20612;-68
2024/01/12 10:41:16;;;;;;;22.57;13.50;;;;;;;8.92;44.33;94769.56;5030768;28;20191;-66
2024/01/12 10:43:46;;;;;;;22.13;14.50;;;;;;;8.99;44.28;94773.22;5028556;28;20226;-65
2024/01/12 10:46:17;;;;;;;20.97;14.07;;;;;;;8.76;44.36;94730.94;5027454;28;20200;-66
2024/01/12 10:48:49;;;;;;;22.23;15.13;;;;;;;9.02;44.41;94772.16;5018952;28;20185;-65
2024/01/12 10:51:19;;;;;;;23.80;15.17;;;;;;;9.02;44.55;94770.44;5013676;28;20203;-64
2024/01/12 10:53:54;;;;;;;19.93;13.87;;;;;;;9.08;44.57;94770.84;5032687;28;20287;-65
2024/01/12 10:56:22;;;;;;;23.90;14.30;;;;;;;9.10;44.54;94768.97;5026304;28;20187;-61
2024/01/12 10:58:50;;;;;;;25.20;15.47;;;;;;;9.09;44.41;94765.63;5026270;28;20203;-66
2024/01/12 11:01:17;;;;;;;23.70;14.93;;;;;;;9.03;44.57;94771.22;5015009;28;20202;-66
2024/01/12 11:03:47;;;;;;;23.27;14.57;;;;;;;9.05;44.33;94777.00;5014892;28;20214;-63
2024/01/12 11:06:16;;;;;;;24.07;15.40;;;;;;;8.87;44.64;94746.16;5016446;28;20199;-63
2024/01/12 11:08:43;;;;;;;22.30;15.07;;;;;;;8.87;44.77;94743.63;5026891;28;20199;-64
2024/01/12 11:11:15;;;;;;;25.90;16.00;;;;;;;9.08;44.58;94773.41;5011589;28;20623;-62
2024/01/12 11:13:44;;;;;;;25.63;15.27;;;;;;;9.13;44.61;94779.72;5008933;28;20625;-61
2024/01/12 11:16:11;;;;;;;25.80;15.67;;;;;;;9.17;44.58;94780.28;5004654;28;20193;-60
2024/01/12 11:18:38;;;;;;;27.60;14.73;;;;;;;9.15;44.67;94780.41;5006115;28;20192;-61
2024/01/12 11:21:05;;;;;;;28.53;16.03;;;;;;;9.09;44.56;94772.47;5005379;28;20262;-64
2024/01/12 11:23:40;;;;;;;23.17;14.57;;;;;;;8.82;44.59;94750.84;5029829;28;20211;-63
2024/01/12 11:26:07;;;;;;;25.87;15.07;;;;;;;8.88;44.83;94777.56;5019332;28;20275;-62
2024/01/12 11:28:37;;;;;;;23.10;14.70;;;;;;;8.82;44.84;94784.00;5010424;28;20691;-62